Time;durP1;ratioP1;P1;durP2;ratioP2;P2;SDS_P1;SDS_P2;PMS_P1;PMS_P2;Temp;Humidity;BMP_temperature;BMP_pressure;BME280_temperature;BME280_humidity;BME280_pressure;Samples;Min_cycle;Max_cycle;Signal;HPM_P1;HPM_P2
2022/06/14 00:02:56;;;;;;;3.53;2.93;;;13.10;24.70;;;;;;5008871;28;20178;-67
2022/06/14 00:05:21;;;;;;;3.40;3.10;;;13.10;24.70;;;;;;5008710;28;20808;-67
2022/06/14 00:07:47;;;;;;;5.67;3.50;;;13.10;24.70;;;;;;5008679;28;20585;-66
2022/06/14 00:10:13;;;;;;;4.13;3.50;;;13.00;24.70;;;;;;5008528;28;20532;-66
2022/06/14 00:12:39;;;;;;;4.90;3.67;;;12.90;25.10;;;;;;5008710;28;20609;-68
2022/06/14 00:15:05;;;;;;;3.97;2.77;;;12.80;25.50;;;;;;5008532;28;20434;-68
2022/06/14 00:17:30;;;;;;;5.73;3.30;;;12.80;25.50;;;;;;5008693;28;20182;-68
2022/06/14 00:19:56;;;;;;;3.77;3.47;;;12.80;25.30;;;;;;5008347;28;20472;-68
2022/06/14 00:22:21;;;;;;;3.33;2.83;;;12.70;25.40;;;;;;5008740;28;20544;-68
2022/06/14 00:24:47;;;;;;;5.03;3.87;;;12.80;25.70;;;;;;5011918;28;20203;-69
2022/06/14 00:27:13;;;;;;;5.00;3.90;;;12.90;25.50;;;;;;5011917;28;20206;-68
2022/06/14 00:29:38;;;;;;;6.10;3.33;;;12.80;25.10;;;;;;5011568;28;20649;-69
2022/06/14 00:32:04;;;;;;;5.57;3.10;;;12.70;25.50;;;;;;5011862;28;20285;-68
2022/06/14 00:34:30;;;;;;;5.93;3.73;;;12.80;25.80;;;;;;5011593;28;20749;-69
2022/06/14 00:36:56;;;;;;;4.17;2.83;;;12.70;25.90;;;;;;5010522;28;20455;-69
2022/06/14 00:39:22;;;;;;;5.10;3.40;;;12.80;25.60;;;;;;5011372;28;20213;-68
2022/06/14 00:41:51;;;;;;;6.13;4.33;;;12.80;25.90;;;;;;5011642;28;20410;-69
2022/06/14 00:44:21;;;;;;;6.60;3.90;;;12.80;25.50;;;;;;5011499;28;20918;-68
2022/06/14 00:46:56;;;;;;;9.97;3.60;;;12.90;25.10;;;;;;5011561;28;20948;-68
2022/06/14 00:49:26;;;;;;;6.63;3.60;;;12.90;24.60;;;;;;5011200;28;20410;-69
2022/06/14 00:52:05;;;;;;;4.63;4.20;;;12.70;24.80;;;;;;5011561;28;20408;-68
2022/06/14 00:54:36;;;;;;;4.67;3.77;;;12.70;25.20;;;;;;5010071;28;20499;-68
2022/06/14 00:57:07;;;;;;;4.70;3.43;;;12.80;24.90;;;;;;5011389;28;20510;-69
2022/06/14 00:59:40;;;;;;;4.10;3.23;;;12.80;24.70;;;;;;5011019;28;20931;-69
2022/06/14 01:02:18;;;;;;;4.10;2.50;;;12.80;24.80;;;;;;5011401;28;20877;-68
2022/06/14 01:04:46;;;;;;;4.40;3.87;;;12.80;24.80;;;;;;5011221;28;20801;-68
2022/06/14 01:07:27;;;;;;;3.80;3.43;;;12.80;24.50;;;;;;5011271;28;20827;-69
2022/06/14 01:10:16;;;;;;;4.93;3.13;;;12.80;24.60;;;;;;5011009;28;20410;-69
2022/06/14 01:12:47;;;;;;;5.00;4.47;;;12.70;25.20;;;;;;5011297;28;20418;-69
2022/06/14 01:15:28;;;;;;;7.43;3.50;;;12.60;25.40;;;;;;5011172;28;20430;-69
2022/06/14 01:17:58;;;;;;;6.27;3.53;;;12.60;25.20;;;;;;5011064;28;20512;-69
2022/06/14 01:20:24;;;;;;;5.00;3.93;;;12.60;25.20;;;;;;5011268;28;20466;-69
2022/06/14 01:22:51;;;;;;;4.47;3.53;;;12.50;25.70;;;;;;5011169;28;20417;-69
2022/06/14 01:25:17;;;;;;;6.97;3.83;;;12.50;25.40;;;;;;5011071;28;20195;-69
2022/06/14 01:27:44;;;;;;;4.90;3.13;;;12.40;25.20;;;;;;5010923;28;20411;-69
2022/06/14 01:30:18;;;;;;;4.10;2.90;;;12.40;25.20;;;;;;5010603;28;20415;-69
2022/06/14 01:32:56;;;;;;;4.53;3.77;;;12.40;25.80;;;;;;5010995;28;20409;-69
2022/06/14 01:35:25;;;;;;;4.53;3.30;;;12.30;25.80;;;;;;5010036;28;20457;-69
2022/06/14 01:37:53;;;;;;;5.87;3.67;;;12.30;26.10;;;;;;5010815;28;20441;-69
2022/06/14 01:40:28;;;;;;;6.43;3.50;;;12.30;25.80;;;;;;5010550;28;20455;-68
2022/06/14 01:43:08;;;;;;;5.60;3.87;;;12.30;26.00;;;;;;5009447;28;20926;-68
2022/06/14 01:45:55;;;;;;;4.30;2.93;;;12.20;26.30;;;;;;5010752;28;20433;-69
2022/06/14 01:48:40;;;;;;;9.13;3.93;;;12.20;26.60;;;;;;5010449;28;20503;-68
2022/06/14 01:54:10;;;;;;;4.70;3.17;;;12.10;26.90;;;;;;5010614;28;20502;-68
2022/06/14 01:56:49;;;;;;;4.23;3.83;;;12.10;27.00;;;;;;5010558;28;20413;-69
2022/06/14 01:59:23;;;;;;;7.20;3.90;;;11.90;27.70;;;;;;5010164;28;20460;-68
2022/06/14 02:02:07;;;;;;;3.93;3.30;;;11.90;28.00;;;;;;5010669;28;20413;-69
2022/06/14 02:04:38;;;;;;;5.50;3.50;;;11.90;28.00;;;;;;5010233;28;20429;-68
2022/06/14 02:07:09;;;;;;;3.90;3.10;;;12.00;27.70;;;;;;5010415;28;20436;-68
2022/06/14 02:09:57;;;;;;;4.80;3.37;;;11.90;27.90;;;;;;5010059;28;20473;-68
2022/06/14 02:12:49;;;;;;;4.07;2.80;;;11.90;27.50;;;;;;5010331;28;20978;-68
2022/06/14 02:15:30;;;;;;;7.37;3.73;;;11.80;28.00;;;;;;5010042;28;20513;-68
2022/06/14 02:18:08;;;;;;;4.23;3.20;;;11.70;28.00;;;;;;5010016;28;20830;-68
2022/06/14 02:21:03;;;;;;;3.70;3.03;;;11.70;28.20;;;;;;5010207;28;21000;-68
2022/06/14 02:23:39;;;;;;;6.40;3.90;;;11.60;28.80;;;;;;5010126;28;20424;-68
2022/06/14 02:26:10;;;;;;;5.17;3.77;;;11.60;29.10;;;;;;5009933;28;20441;-68
2022/06/14 02:28:48;;;;;;;9.20;3.30;;;11.70;28.90;;;;;;5009926;28;20417;-68
2022/06/14 02:31:27;;;;;;;4.40;3.50;;;11.60;28.50;;;;;;5009972;28;20396;-68
2022/06/14 02:34:00;;;;;;;7.13;4.13;;;11.60;28.70;;;;;;5009887;28;20452;-67
2022/06/14 02:36:33;;;;;;;6.13;3.93;;;11.60;28.50;;;;;;5009832;28;20469;-68
2022/06/14 02:39:05;;;;;;;4.07;2.93;;;11.50;29.00;;;;;;5009531;28;20541;-68
2022/06/14 02:41:43;;;;;;;8.67;3.20;;;11.40;29.30;;;;;;5009809;28;20419;-68
2022/06/14 02:44:16;;;;;;;5.10;4.13;;;11.40;29.80;;;;;;5009679;28;20410;-68
2022/06/14 02:47:07;;;;;;;7.57;3.10;;;11.50;29.10;;;;;;5008715;28;20418;-68
2022/06/14 02:50:11;;;;;;;5.10;3.47;;;11.40;29.70;;;;;;5009570;28;20840;-69
2022/06/14 02:52:43;;;;;;;3.50;3.20;;;11.40;29.80;;;;;;5000609;28;20471;-68
2022/06/14 02:55:38;;;;;;;3.53;2.80;;;11.50;29.70;;;;;;5009620;28;20427;-68
2022/06/14 02:58:55;;;;;;;5.70;3.30;;;11.40;29.60;;;;;;5009402;28;20424;-68
2022/06/14 03:01:27;;;;;;;5.83;4.20;;;11.40;29.70;;;;;;4986675;28;20526;-68
2022/06/14 03:04:01;;;;;;;5.53;3.27;;;11.40;29.70;;;;;;5009596;28;20546;-68
2022/06/14 03:06:56;;;;;;;6.10;3.60;;;11.40;29.80;;;;;;5009463;28;20449;-68
2022/06/14 03:09:24;;;;;;;4.53;3.27;;;11.30;29.50;;;;;;5009316;28;20495;-68
2022/06/14 03:12:00;;;;;;;4.70;3.60;;;11.30;29.40;;;;;;5009464;28;20413;-68
2022/06/14 03:14:46;;;;;;;6.43;4.20;;;11.30;29.70;;;;;;5009323;28;20419;-69
2022/06/14 03:17:39;;;;;;;9.33;3.17;;;11.30;29.90;;;;;;5009337;28;20915;-67
2022/06/14 03:20:12;;;;;;;4.50;3.57;;;11.30;29.30;;;;;;5009126;28;20457;-68
2022/06/14 03:23:14;;;;;;;5.40;3.47;;;11.30;29.20;;;;;;5009252;28;20429;-69
2022/06/14 03:25:40;;;;;;;3.37;3.07;;;11.20;29.40;;;;;;5009249;28;20444;-69
2022/06/14 03:28:30;;;;;;;4.90;3.33;;;11.20;29.70;;;;;;5007741;28;20430;-68
2022/06/14 03:31:04;;;;;;;9.77;4.63;;;11.20;29.60;;;;;;5009011;28;20178;-68
2022/06/14 03:33:39;;;;;;;3.40;2.70;;;11.20;29.50;;;;;;5009110;28;20420;-69
2022/06/14 03:36:07;;;;;;;7.00;5.43;;;11.10;29.70;;;;;;5016532;23;20901;-68
2022/06/14 03:38:42;;;;;;;4.10;3.40;;;11.10;29.70;;;;;;4989468;28;20415;-69
2022/06/14 03:41:13;;;;;;;5.90;3.80;;;11.10;29.70;;;;;;4989917;28;20447;-69
2022/06/14 03:43:40;;;;;;;6.13;4.00;;;11.10;29.50;;;;;;4989439;28;20790;-69
2022/06/14 03:46:37;;;;;;;4.03;3.50;;;11.10;29.70;;;;;;4989633;28;20423;-69
2022/06/14 03:49:17;;;;;;;6.77;4.47;;;11.20;29.80;;;;;;4989099;28;20405;-68
2022/06/14 03:52:10;;;;;;;7.17;3.83;;;11.10;29.80;;;;;;4989220;28;20409;-68
2022/06/14 03:55:13;;;;;;;4.97;3.50;;;11.10;29.60;;;;;;4989115;28;20424;-68
2022/06/14 03:58:02;;;;;;;5.73;4.00;;;11.20;29.70;;;;;;4989804;28;20452;-69
2022/06/14 04:00:49;;;;;;;7.73;4.13;;;11.30;29.10;;;;;;4992485;28;20961;-68
2022/06/14 04:03:37;;;;;;;4.13;3.67;;;11.30;29.10;;;;;;4992501;28;20409;-68
2022/06/14 04:06:21;;;;;;;4.83;3.80;;;11.40;29.30;;;;;;4992702;28;20434;-69
2022/06/14 04:09:02;;;;;;;5.10;3.70;;;11.60;28.80;;;;;;4992440;28;20413;-69
2022/06/14 04:11:47;;;;;;;5.30;3.70;;;11.60;28.40;;;;;;4992520;28;20421;-69
2022/06/14 04:14:51;;;;;;;6.23;3.03;;;11.70;28.50;;;;;;4992460;28;20407;-69
2022/06/14 04:17:47;;;;;;;8.73;4.37;;;11.80;28.00;;;;;;4979420;28;20452;-69
2022/06/14 04:20:13;;;;;;;5.43;3.70;;;11.80;28.00;;;;;;4992036;28;20553;-68
2022/06/14 04:22:48;;;;;;;5.10;3.60;;;11.80;28.00;;;;;;4992316;28;20492;-68
2022/06/14 04:25:36;;;;;;;5.80;4.17;;;11.90;28.50;;;;;;4992206;28;20202;-68
2022/06/14 04:28:18;;;;;;;5.90;4.50;;;12.10;27.60;;;;;;4992070;28;20451;-69
2022/06/14 04:30:50;;;;;;;6.23;4.47;;;12.10;27.40;;;;;;4992243;28;20841;-69
2022/06/14 04:33:23;;;;;;;3.83;3.47;;;12.00;27.90;;;;;;4992023;28;20471;-68
2022/06/14 04:36:05;;;;;;;7.90;4.90;;;12.00;27.70;;;;;;4991807;28;20522;-69
2022/06/14 04:38:54;;;;;;;5.40;3.80;;;12.00;27.80;;;;;;4991717;28;20460;-68
2022/06/14 04:41:25;;;;;;;5.87;3.70;;;12.10;27.80;;;;;;4991409;28;20804;-68
2022/06/14 04:44:01;;;;;;;5.30;3.40;;;12.20;27.90;;;;;;4991946;28;20763;-69
2022/06/14 04:46:34;;;;;;;7.03;3.83;;;12.40;27.30;;;;;;4991892;28;20434;-68
2022/06/14 04:49:33;;;;;;;4.83;3.87;;;12.50;27.10;;;;;;4990361;28;20431;-68
2022/06/14 04:52:22;;;;;;;7.73;4.80;;;12.80;27.30;;;;;;4991705;28;20419;-68
2022/06/14 04:55:09;;;;;;;5.47;5.07;;;14.10;23.70;;;;;;4991726;28;20499;-69
2022/06/14 04:57:44;;;;;;;6.70;6.20;;;15.60;21.10;;;;;;4991783;28;20455;-69
2022/06/14 05:00:14;;;;;;;9.40;8.50;;;17.30;19.10;;;;;;4991321;28;20466;-69
2022/06/14 05:03:07;;;;;;;8.73;8.30;;;18.70;16.20;;;;;;4991506;28;20416;-69
2022/06/14 05:05:40;;;;;;;12.57;11.63;;;20.10;13.60;;;;;;4991486;28;20979;-69
2022/06/14 05:08:37;;;;;;;12.87;12.27;;;21.30;10.70;;;;;;4991415;28;20921;-68
2022/06/14 05:11:28;;;;;;;13.20;12.50;;;22.40;8.60;;;;;;4990765;28;20973;-68
2022/06/14 05:14:12;;;;;;;15.00;13.77;;;23.80;7.80;;;;;;4991942;28;20423;-69
2022/06/14 05:17:05;;;;;;;14.00;13.40;;;25.00;6.40;;;;;;4991539;28;20439;-70
2022/06/14 05:19:49;;;;;;;14.50;13.80;;;26.00;4.40;;;;;;4983159;28;20566;-68
2022/06/14 05:22:30;;;;;;;14.70;14.00;;;27.00;2.70;;;;;;4991462;28;20411;-68
2022/06/14 05:24:57;;;;;;;14.60;13.90;;;27.90;1.00;;;;;;4991489;28;20427;-68
2022/06/14 05:27:31;;;;;;;15.00;14.30;;;28.70;1.00;;;;;;4991268;28;20424;-68
2022/06/14 05:30:11;;;;;;;15.43;14.77;;;29.40;1.00;;;;;;4991134;28;20797;-69
2022/06/14 05:32:43;;;;;;;15.10;14.50;;;30.20;1.00;;;;;;4991438;28;20443;-68
2022/06/14 05:35:30;;;;;;;15.40;14.70;;;30.90;1.00;;;;;;4991354;28;20508;-69
2022/06/14 05:38:17;;;;;;;16.17;15.17;;;31.50;1.00;;;;;;4989688;28;20478;-70
2022/06/14 05:41:03;;;;;;;16.00;15.30;;;32.00;1.00;;;;;;4991425;28;20566;-70
2022/06/14 05:43:39;;;;;;;16.33;15.27;;;32.40;1.00;;;;;;4990213;28;20427;-69
2022/06/14 05:46:08;;;;;;;16.37;15.37;;;32.40;1.00;;;;;;4991106;28;20439;-69
2022/06/14 05:48:41;;;;;;;16.70;15.80;;;33.00;1.00;;;;;;4990994;28;20427;-70
2022/06/14 05:51:11;;;;;;;17.33;16.30;;;33.00;1.00;;;;;;4991447;28;20979;-70
2022/06/14 05:53:44;;;;;;;16.57;15.63;;;30.70;1.00;;;;;;4991152;28;20420;-69
2022/06/14 05:56:33;;;;;;;16.47;15.60;;;31.00;1.00;;;;;;4990979;28;20440;-69
2022/06/14 05:59:34;;;;;;;17.10;16.27;;;31.80;1.00;;;;;;4990690;28;20420;-69
2022/06/14 06:02:20;;;;;;;17.37;16.57;;;31.90;1.00;;;;;;4990888;28;20416;-69
2022/06/14 06:04:54;;;;;;;16.30;15.60;;;30.90;1.00;;;;;;4991238;28;20438;-70
2022/06/14 06:07:31;;;;;;;15.40;14.70;;;30.80;1.00;;;;;;4990738;28;20560;-69
2022/06/14 06:10:02;;;;;;;16.27;15.57;;;29.80;1.00;;;;;;4990512;28;20844;-69
2022/06/14 06:12:35;;;;;;;16.73;15.83;;;31.10;1.00;;;;;;4990796;28;20789;-70
2022/06/14 06:15:03;;;;;;;16.13;15.30;;;32.30;1.00;;;;;;4991024;28;20443;-70
2022/06/14 06:17:38;;;;;;;16.13;15.43;;;32.00;1.00;;;;;;4990556;28;20459;-70
2022/06/14 06:20:46;;;;;;;16.33;15.60;;;33.40;1.00;;;;;;4990233;28;20470;-71
2022/06/14 06:23:15;;;;;;;16.63;15.87;;;33.90;1.00;;;;;;4982512;28;20424;-70
2022/06/14 06:25:47;;;;;;;17.50;16.60;;;33.80;1.00;;;;;;4990427;28;20458;-70
2022/06/14 06:28:18;;;;;;;16.90;16.10;;;32.60;1.00;;;;;;4990460;28;20400;-70
2022/06/14 06:30:43;;;;;;;17.90;16.70;;;30.40;1.00;;;;;;4990518;28;20419;-69
2022/06/14 06:33:13;;;;;;;17.60;16.63;;;31.30;1.00;;;;;;4990463;28;20412;-70
2022/06/14 06:35:49;;;;;;;18.20;17.10;;;30.60;1.00;;;;;;4988429;28;20213;-70
2022/06/14 06:38:24;;;;;;;18.10;16.70;;;31.80;1.00;;;;;;4974273;28;20434;-69
2022/06/14 06:43:46;;;;;;;19.17;17.97;;;32.20;1.00;;;;;;4990372;28;20411;-70
2022/06/14 06:46:14;;;;;;;17.57;16.63;;;31.20;1.00;;;;;;4989159;28;20432;-71
2022/06/14 06:48:45;;;;;;;16.93;16.03;;;31.80;1.00;;;;;;4989409;28;20420;-68
2022/06/14 06:51:15;;;;;;;17.10;16.10;;;32.90;1.00;;;;;;4990157;28;20436;-72
2022/06/14 06:53:59;;;;;;;16.27;15.57;;;32.90;1.00;;;;;;4990238;28;20416;-71
2022/06/14 06:56:36;;;;;;;16.60;15.87;;;31.90;1.00;;;;;;4990270;28;20444;-71
2022/06/14 06:59:14;;;;;;;18.00;17.10;;;31.40;1.00;;;;;;4989817;28;20835;-70
2022/06/14 07:01:41;;;;;;;17.23;16.37;;;31.10;1.00;;;;;;4989580;28;20408;-70
2022/06/14 07:07:40;;;;;;;16.67;15.70;;;27.50;1.00;;;;;;4989637;28;20422;-70
2022/06/14 07:10:20;;;;;;;16.53;15.73;;;26.20;1.00;;;;;;4959080;28;20424;-70
2022/06/14 07:12:55;;;;;;;17.40;16.60;;;27.20;1.00;;;;;;4988303;28;20511;-71
2022/06/14 07:15:40;;;;;;;18.23;16.70;;;26.80;1.00;;;;;;4988544;28;20435;-70
2022/06/14 07:18:11;;;;;;;17.83;16.37;;;25.20;1.00;;;;;;4989525;28;20403;-68
2022/06/14 07:20:50;;;;;;;16.40;15.70;;;24.40;1.80;;;;;;4980232;28;20475;-72
2022/06/14 07:23:29;;;;;;;16.27;15.13;;;25.90;1.00;;;;;;4969495;28;20417;-72
2022/06/14 07:26:29;;;;;;;18.03;17.03;;;28.00;1.00;;;;;;4979558;28;20818;-70
2022/06/14 07:29:07;;;;;;;16.27;15.53;;;29.90;1.00;;;;;;4989222;28;20412;-70
2022/06/14 07:31:44;;;;;;;17.00;16.13;;;30.60;1.00;;;;;;4989405;28;20412;-70
2022/06/14 07:34:14;;;;;;;17.63;16.70;;;32.10;1.00;;;;;;4988359;28;20419;-71
2022/06/14 07:36:52;;;;;;;17.90;17.00;;;32.80;1.00;;;;;;4969662;28;20449;-70
2022/06/14 07:39:24;;;;;;;16.70;15.80;;;32.50;1.00;;;;;;4969528;28;20452;-72
2022/06/14 07:42:05;;;;;;;16.80;16.10;;;30.90;1.00;;;;;;4969940;28;20420;-70
2022/06/14 07:44:56;;;;;;;17.63;16.73;;;31.60;1.00;;;;;;4970116;28;20404;-70
2022/06/14 07:47:29;;;;;;;16.70;15.80;;;31.20;1.00;;;;;;4972100;28;21003;-69
2022/06/14 07:50:14;;;;;;;17.03;16.13;;;32.30;1.00;;;;;;4977313;28;20432;-70
2022/06/14 07:52:47;;;;;;;17.17;16.37;;;29.20;1.00;;;;;;4989214;28;20487;-69
2022/06/14 07:55:37;;;;;;;17.40;16.40;;;28.90;1.00;;;;;;4988025;28;20539;-68
2022/06/14 07:58:13;;;;;;;16.53;15.80;;;29.20;1.00;;;;;;4987685;28;20510;-68
2022/06/14 08:03:43;;;;;;;17.17;16.20;;;30.60;1.00;;;;;;4989447;28;20406;-68
2022/06/14 08:06:14;;;;;;;16.40;15.70;;;30.90;1.00;;;;;;4989459;28;20424;-69
2022/06/14 08:08:42;;;;;;;17.57;16.10;;;27.50;1.00;;;;;;4988832;28;20416;-68
2022/06/14 08:11:37;;;;;;;17.67;16.10;;;27.10;1.00;;;;;;4989024;28;20856;-69
2022/06/14 08:14:08;;;;;;;15.20;14.40;;;27.70;1.00;;;;;;4987443;28;20515;-68
2022/06/14 08:16:35;;;;;;;16.27;15.47;;;27.70;1.00;;;;;;4989035;28;20438;-67
2022/06/14 08:19:11;;;;;;;15.63;14.93;;;28.90;1.00;;;;;;4988730;28;20420;-68
2022/06/14 08:21:44;;;;;;;15.60;14.73;;;28.60;1.00;;;;;;4989032;28;20423;-67
2022/06/14 08:24:13;;;;;;;15.90;15.10;;;27.60;1.00;;;;;;4988884;28;20764;-67
2022/06/14 08:27:11;;;;;;;15.50;14.80;;;26.10;1.30;;;;;;4988690;28;20468;-70
2022/06/14 08:29:50;;;;;;;15.67;14.97;;;26.70;1.90;;;;;;4988936;28;20400;-68
2022/06/14 08:32:32;;;;;;;16.20;15.40;;;27.50;1.00;;;;;;4989022;28;20404;-67
2022/06/14 08:35:24;;;;;;;16.60;15.80;;;26.60;1.00;;;;;;4988862;28;20831;-69
2022/06/14 08:38:07;;;;;;;15.73;15.03;;;26.80;1.00;;;;;;4988932;28;20494;-68
2022/06/14 08:41:02;;;;;;;16.17;15.37;;;27.10;1.00;;;;;;4988730;28;20799;-69
2022/06/14 08:43:42;;;;;;;15.47;14.77;;;26.00;1.00;;;;;;4988723;28;20430;-67
2022/06/14 08:46:19;;;;;;;15.67;15.00;;;25.80;2.10;;;;;;4991487;28;20973;-68
2022/06/14 08:49:21;;;;;;;15.47;14.73;;;26.00;2.20;;;;;;4991593;28;20899;-68
2022/06/14 08:52:03;;;;;;;15.90;15.10;;;25.90;2.10;;;;;;4991897;28;20414;-68
2022/06/14 08:54:37;;;;;;;17.23;16.03;;;25.60;2.20;;;;;;4991813;28;20410;-69
2022/06/14 08:57:32;;;;;;;16.13;15.23;;;23.60;4.30;;;;;;4992110;28;20586;-68
2022/06/14 09:00:06;;;;;;;16.30;15.37;;;23.80;4.90;;;;;;4991444;28;20451;-67
2022/06/14 09:02:50;;;;;;;16.80;15.80;;;22.90;5.20;;;;;;4991708;28;20415;-67
2022/06/14 09:05:29;;;;;;;15.30;14.50;;;22.60;6.40;;;;;;4991660;28;20438;-67
2022/06/14 09:08:30;;;;;;;15.10;14.43;;;22.60;6.70;;;;;;4991588;28;20439;-67
2022/06/14 09:11:29;;;;;;;15.10;14.30;;;22.60;5.60;;;;;;4991777;28;20445;-67
2022/06/14 09:14:15;;;;;;;14.90;13.90;;;22.10;6.20;;;;;;4991730;28;20805;-67
2022/06/14 09:16:46;;;;;;;14.43;13.73;;;21.60;7.00;;;;;;4991649;28;20780;-67
2022/06/14 09:19:34;;;;;;;13.20;12.50;;;21.40;7.70;;;;;;4991144;28;20458;-67
2022/06/14 09:22:09;;;;;;;14.63;13.93;;;21.20;7.40;;;;;;4991587;28;20408;-68
2022/06/14 09:24:56;;;;;;;14.73;14.03;;;21.30;8.50;;;;;;4991467;28;20423;-68
2022/06/14 09:27:43;;;;;;;15.00;14.30;;;21.50;7.40;;;;;;4991672;28;20473;-68
2022/06/14 09:30:46;;;;;;;14.30;13.33;;;21.60;7.40;;;;;;4991250;28;20414;-68
2022/06/14 09:33:33;;;;;;;14.13;13.40;;;21.60;7.60;;;;;;4991409;28;20442;-68
2022/06/14 09:36:52;;;;;;;14.13;13.23;;;21.70;8.00;;;;;;4991574;28;20986;-68
2022/06/14 09:39:43;;;;;;;14.30;13.40;;;21.50;8.10;;;;;;4967961;28;20468;-67
2022/06/14 09:42:28;;;;;;;14.20;13.20;;;21.60;8.60;;;;;;4991137;28;20443;-68
2022/06/14 09:45:21;;;;;;;22.27;14.40;;;21.70;8.10;;;;;;4989832;28;20454;-69
2022/06/14 09:48:11;;;;;;;14.63;13.80;;;21.90;8.20;;;;;;4991088;28;20836;-68
2022/06/14 09:50:50;;;;;;;14.20;13.37;;;22.00;7.00;;;;;;4991008;28;20443;-67
2022/06/14 09:53:38;;;;;;;15.20;14.17;;;21.50;8.00;;;;;;4989471;28;20477;-68
2022/06/14 09:56:22;;;;;;;14.43;13.63;;;21.60;8.70;;;;;;4990474;28;20513;-68
2022/06/14 09:59:09;;;;;;;14.30;13.50;;;21.50;8.60;;;;;;4990717;28;20937;-70
2022/06/14 10:01:59;;;;;;;14.53;13.80;;;21.30;8.50;;;;;;4990972;28;20882;-67
2022/06/14 10:04:57;;;;;;;14.73;13.90;;;21.40;8.10;;;;;;4990706;28;20412;-70
2022/06/14 10:07:41;;;;;;;14.03;13.40;;;21.70;8.00;;;;;;4990715;28;20827;-68
2022/06/14 10:10:17;;;;;;;14.97;14.17;;;21.80;7.90;;;;;;4990282;28;20463;-69
2022/06/14 10:12:58;;;;;;;14.10;13.50;;;21.90;7.40;;;;;;4990674;28;20427;-67
2022/06/14 10:15:40;;;;;;;13.53;12.73;;;22.20;6.90;;;;;;4990531;28;20420;-68
2022/06/14 10:18:30;;;;;;;15.67;14.77;;;22.20;6.60;;;;;;4990243;28;20411;-69
2022/06/14 10:21:15;;;;;;;14.73;13.93;;;22.40;5.60;;;;;;4990510;28;20460;-68
2022/06/14 10:23:43;;;;;;;14.03;13.43;;;22.30;5.10;;;;;;4990486;28;20412;-69
2022/06/14 10:29:26;;;;;;;14.77;14.00;;;22.50;4.70;;;;;;4990276;28;20457;-69
2022/06/14 10:32:00;;;;;;;14.77;14.03;;;22.50;4.70;;;;;;4990304;28;20431;-68
2022/06/14 10:34:50;;;;;;;14.93;14.13;;;22.70;5.60;;;;;;4990412;28;20415;-69
2022/06/14 10:37:41;;;;;;;14.93;14.23;;;22.60;5.20;;;;;;4990299;28;20414;-68
2022/06/14 10:40:33;;;;;;;14.40;13.70;;;22.70;4.80;;;;;;4988733;28;21038;-68
2022/06/14 10:43:12;;;;;;;13.77;13.20;;;22.80;5.30;;;;;;4990557;28;20404;-69
2022/06/14 10:45:42;;;;;;;15.20;14.40;;;22.90;5.10;;;;;;4989996;28;20496;-69
2022/06/14 10:48:27;;;;;;;15.13;14.10;;;23.10;5.30;;;;;;4989822;28;20825;-68
2022/06/14 10:50:55;;;;;;;15.60;14.70;;;23.30;5.20;;;;;;4988667;28;20455;-68
2022/06/14 10:53:20;;;;;;;14.93;14.03;;;22.90;5.00;;;;;;4989970;28;20428;-68
2022/06/14 10:56:30;;;;;;;14.63;13.97;;;22.80;5.60;;;;;;4989871;28;20423;-68
2022/06/14 10:59:13;;;;;;;14.20;13.57;;;22.90;5.80;;;;;;4929476;29;20290;-68
2022/06/14 11:02:17;;;;;;;15.40;14.50;;;23.10;4.80;;;;;;4988656;28;20432;-67
2022/06/14 11:04:59;;;;;;;14.53;13.73;;;23.20;5.10;;;;;;4989678;28;20493;-68
2022/06/14 11:07:51;;;;;;;15.47;14.57;;;23.20;5.20;;;;;;4988797;28;20412;-67
2022/06/14 11:11:06;;;;;;;16.10;14.43;;;22.90;5.10;;;;;;4989646;28;20420;-68
2022/06/14 11:13:49;;;;;;;14.93;14.20;;;22.80;5.40;;;;;;4945138;28;20431;-69
2022/06/14 11:16:45;;;;;;;14.13;13.50;;;23.00;5.00;;;;;;4989675;28;20439;-67
2022/06/14 11:19:30;;;;;;;16.20;15.40;;;23.30;4.70;;;;;;4989260;28;20419;-68
2022/06/14 11:22:08;;;;;;;15.20;14.30;;;23.30;4.40;;;;;;4989475;28;20408;-67
2022/06/14 11:24:42;;;;;;;14.47;13.77;;;23.00;4.00;;;;;;4989448;28;20512;-66
2022/06/14 11:27:29;;;;;;;15.00;14.23;;;23.00;4.70;;;;;;4989528;28;20809;-67
2022/06/14 11:30:11;;;;;;;15.40;14.70;;;23.00;4.90;;;;;;4989148;28;20426;-67
2022/06/14 11:33:01;;;;;;;15.10;14.30;;;23.10;4.50;;;;;;4989540;28;20420;-68
2022/06/14 11:35:45;;;;;;;14.20;13.60;;;23.20;4.50;;;;;;4989251;28;20811;-69
2022/06/14 11:38:48;;;;;;;14.80;14.00;;;23.30;4.30;;;;;;4989204;28;20507;-67
2022/06/14 11:41:17;;;;;;;14.67;13.70;;;23.40;5.00;;;;;;4989383;28;20459;-67
2022/06/14 11:44:03;;;;;;;15.40;14.67;;;23.40;4.80;;;;;;4988269;28;20424;-68
2022/06/14 11:46:56;;;;;;;14.90;14.20;;;23.40;4.40;;;;;;4989408;28;20434;-70
2022/06/14 11:50:17;;;;;;;15.23;14.47;;;23.30;4.70;;;;;;4987974;28;20428;-67
2022/06/14 11:53:19;;;;;;;14.17;13.47;;;23.30;4.10;;;;;;4929179;29;20431;-67
2022/06/14 11:55:51;;;;;;;14.80;13.93;;;23.10;4.20;;;;;;4989156;28;20442;-68
2022/06/14 11:58:32;;;;;;;14.50;13.80;;;23.30;4.60;;;;;;4987768;28;20424;-68
2022/06/14 12:01:18;;;;;;;14.70;14.03;;;23.40;4.80;;;;;;4988951;28;20466;-68
2022/06/14 12:03:53;;;;;;;15.27;14.40;;;23.60;4.70;;;;;;4989182;28;20872;-66
2022/06/14 12:06:30;;;;;;;14.60;14.00;;;23.30;4.10;;;;;;4989139;28;20423;-67
2022/06/14 12:09:11;;;;;;;15.77;15.13;;;23.50;4.90;;;;;;4987533;28;20565;-68
2022/06/14 12:11:45;;;;;;;16.73;15.40;;;23.80;4.70;;;;;;4988919;28;20404;-67
2022/06/14 12:14:17;;;;;;;16.07;15.27;;;23.60;4.20;;;;;;4989023;28;20418;-69
2022/06/14 12:16:52;;;;;;;14.77;14.07;;;23.80;3.40;;;;;;4988860;28;20439;-67
2022/06/14 12:19:30;;;;;;;15.70;14.73;;;23.80;3.60;;;;;;4989986;28;20403;-69
2022/06/14 12:22:26;;;;;;;15.77;14.93;;;23.70;4.00;;;;;;4992181;28;20426;-69
2022/06/14 12:27:39;;;;;;;15.33;14.53;;;23.60;3.90;;;;;;4992040;28;20453;-69
2022/06/14 12:30:05;;;;;;;15.20;14.23;;;23.60;3.60;;;;;;4991859;28;20419;-66
2022/06/14 12:32:53;;;;;;;15.13;14.20;;;23.80;4.00;;;;;;4991848;28;20434;-68
2022/06/14 12:35:26;;;;;;;15.33;14.63;;;23.80;3.50;;;;;;4991799;28;20529;-70
2022/06/14 12:38:04;;;;;;;14.43;13.83;;;23.90;3.50;;;;;;4991930;28;20967;-69
2022/06/14 12:40:40;;;;;;;15.50;14.07;;;23.80;3.40;;;;;;4992031;28;20504;-69
2022/06/14 12:43:22;;;;;;;14.90;14.10;;;23.90;3.60;;;;;;4992168;28;20392;-69
2022/06/14 12:45:56;;;;;;;15.70;14.87;;;23.90;3.50;;;;;;4990653;28;20487;-69
2022/06/14 12:48:30;;;;;;;14.60;13.80;;;24.10;3.30;;;;;;4991788;28;20492;-68
2022/06/14 12:51:05;;;;;;;16.83;15.83;;;24.10;2.60;;;;;;4991875;28;20469;-69
2022/06/14 12:53:54;;;;;;;15.30;14.60;;;24.10;3.60;;;;;;4992261;28;20447;-69
2022/06/14 12:56:36;;;;;;;15.13;14.30;;;24.30;2.40;;;;;;4992114;28;20448;-70
2022/06/14 12:59:14;;;;;;;15.30;14.40;;;24.30;2.40;;;;;;4991614;28;20416;-68
2022/06/14 13:01:55;;;;;;;15.10;14.40;;;24.30;3.30;;;;;;4999907;28;20408;-69
2022/06/14 13:04:30;;;;;;;14.73;14.03;;;24.40;3.20;;;;;;5002993;28;20966;-70
2022/06/14 13:07:36;;;;;;;16.33;15.43;;;24.50;3.10;;;;;;5000715;28;20426;-68
2022/06/14 13:10:28;;;;;;;15.43;14.73;;;24.50;2.60;;;;;;4993532;28;20416;-67
2022/06/14 13:13:20;;;;;;;15.47;14.67;;;24.30;1.60;;;;;;4991843;28;20416;-71
2022/06/14 13:15:59;;;;;;;15.33;14.67;;;24.40;2.80;;;;;;4990366;28;20448;-69
2022/06/14 13:18:27;;;;;;;15.20;14.23;;;24.40;2.70;;;;;;4990033;28;20427;-68
2022/06/14 13:21:06;;;;;;;16.70;15.60;;;24.50;2.70;;;;;;4991474;28;20460;-68
2022/06/14 13:23:50;;;;;;;15.33;14.63;;;24.60;2.10;;;;;;4991462;28;20411;-68
2022/06/14 13:26:30;;;;;;;15.70;15.00;;;24.70;1.50;;;;;;4991406;28;20431;-68
2022/06/14 13:29:18;;;;;;;15.23;14.53;;;24.80;1.50;;;;;;4991256;28;20461;-70
2022/06/14 13:31:56;;;;;;;15.90;15.20;;;24.70;1.50;;;;;;4990582;28;20423;-68
2022/06/14 13:34:27;;;;;;;17.43;15.73;;;24.80;1.50;;;;;;4990216;28;20760;-70
2022/06/14 13:37:18;;;;;;;15.63;14.80;;;24.90;1.60;;;;;;4991376;28;20953;-68
2022/06/14 13:39:59;;;;;;;15.47;14.67;;;24.60;1.40;;;;;;4991022;28;20933;-70
2022/06/14 13:42:44;;;;;;;15.47;14.70;;;24.60;1.40;;;;;;4990966;28;20446;-67
2022/06/14 13:45:22;;;;;;;14.73;14.10;;;24.80;1.50;;;;;;4991199;28;20799;-71
2022/06/14 13:48:12;;;;;;;15.13;14.33;;;24.90;1.60;;;;;;4989967;28;20783;-69
2022/06/14 13:50:52;;;;;;;15.03;14.23;;;24.90;1.50;;;;;;4989703;28;20485;-69
2022/06/14 13:53:28;;;;;;;16.07;15.37;;;25.20;1.00;;;;;;4990947;28;20415;-68
2022/06/14 13:56:19;;;;;;;15.30;14.60;;;25.30;1.00;;;;;;4989440;28;20443;-69
2022/06/14 13:59:30;;;;;;;14.70;14.10;;;25.40;2.20;;;;;;4990601;28;20753;-69
2022/06/14 14:02:03;;;;;;;15.87;15.17;;;25.30;1.80;;;;;;4930481;29;20548;-68
2022/06/14 14:04:43;;;;;;;16.03;15.30;;;25.30;1.00;;;;;;4930728;29;20505;-68
2022/06/14 14:07:36;;;;;;;14.90;14.20;;;25.10;1.00;;;;;;4967086;28;20761;-70